Time;durP1;ratioP1;P1;durP2;ratioP2;P2;SDS_P1;SDS_P2;PMS_P1;PMS_P2;Temp;Humidity;BMP_temperature;BMP_pressure;BME280_temperature;BME280_humidity;BME280_pressure;Samples;Min_cycle;Max_cycle;Signal;HPM_P1;HPM_P2
2021/10/06 00:01:49;;;;;;;;;;;24.50;46.20;;;;;;456552;260;1155;-72
2021/10/06 00:03:50;;;;;;;;;;;24.40;46.20;;;;;;456532;261;989;-72
2021/10/06 00:05:52;;;;;;;;;;;24.50;46.10;;;;;;456685;257;1380;-72
2021/10/06 00:07:54;;;;;;;;;;;24.00;46.70;;;;;;456704;260;1149;-72
2021/10/06 00:09:55;;;;;;;;;;;23.80;47.60;;;;;;456705;260;981;-72
2021/10/06 00:11:57;;;;;;;;;;;23.70;47.80;;;;;;456536;259;1213;-73
2021/10/06 00:13:58;;;;;;;;;;;23.70;48.00;;;;;;456708;260;1069;-72
2021/10/06 00:15:59;;;;;;;;;;;23.80;47.60;;;;;;456666;260;1225;-72
2021/10/06 00:18:01;;;;;;;;;;;23.80;47.70;;;;;;456714;260;2206;-72
2021/10/06 00:20:02;;;;;;;;;;;23.80;47.60;;;;;;456716;260;961;-73
2021/10/06 00:22:03;;;;;;;;;;;23.70;47.60;;;;;;456545;260;1339;-72
2021/10/06 00:24:05;;;;;;;;;;;23.70;47.70;;;;;;456729;260;1064;-72
2021/10/06 00:26:06;;;;;;;;;;;23.60;47.80;;;;;;456707;260;1361;-73
2021/10/06 00:28:07;;;;;;;;;;;23.70;47.80;;;;;;456734;260;1155;-72
2021/10/06 00:30:09;;;;;;;;;;;23.50;47.90;;;;;;456680;260;970;-72
2021/10/06 00:32:10;;;;;;;;;;;23.90;47.40;;;;;;456550;260;1163;-72
2021/10/06 00:34:11;;;;;;;;;;;24.20;46.70;;;;;;456701;260;1015;-72
2021/10/06 00:36:13;;;;;;;;;;;24.40;46.20;;;;;;456692;256;1179;-73
2021/10/06 00:38:14;;;;;;;;;;;24.40;46.00;;;;;;456649;261;2125;-72
2021/10/06 00:40:15;;;;;;;;;;;24.50;45.80;;;;;;456674;260;1059;-72
2021/10/06 00:42:17;;;;;;;;;;;24.50;45.70;;;;;;456662;260;1100;-72
2021/10/06 00:44:18;;;;;;;;;;;24.50;45.50;;;;;;456731;260;1113;-72
2021/10/06 00:46:19;;;;;;;;;;;24.70;45.40;;;;;;456669;260;1244;-72
2021/10/06 00:48:21;;;;;;;;;;;24.70;45.30;;;;;;456684;260;1207;-72
2021/10/06 00:50:22;;;;;;;;;;;24.70;45.10;;;;;;456664;261;1197;-72
2021/10/06 00:52:24;;;;;;;;;;;24.70;45.10;;;;;;456669;260;1230;-72
2021/10/06 00:54:25;;;;;;;;;;;24.60;45.20;;;;;;456767;260;1179;-72
2021/10/06 00:56:27;;;;;;;;;;;24.40;45.60;;;;;;456617;260;1355;-72
2021/10/06 00:58:28;;;;;;;;;;;24.50;45.50;;;;;;456638;260;2202;-73
2021/10/06 01:00:29;;;;;;;;;;;24.50;45.50;;;;;;456606;260;971;-72
2021/10/06 01:02:31;;;;;;;;;;;24.50;45.40;;;;;;456591;260;1178;-72
2021/10/06 01:04:32;;;;;;;;;;;24.50;45.40;;;;;;456684;260;1228;-72
2021/10/06 01:06:33;;;;;;;;;;;24.40;45.50;;;;;;456727;259;1232;-72
2021/10/06 01:08:35;;;;;;;;;;;24.40;45.40;;;;;;456717;261;1139;-72
2021/10/06 01:10:36;;;;;;;;;;;24.20;45.80;;;;;;456646;260;1243;-72
2021/10/06 01:12:38;;;;;;;;;;;24.30;46.00;;;;;;456647;260;1247;-72
2021/10/06 01:14:39;;;;;;;;;;;24.10;46.10;;;;;;456726;261;1075;-72
2021/10/06 01:16:40;;;;;;;;;;;24.10;46.20;;;;;;456664;260;1161;-72
2021/10/06 01:18:42;;;;;;;;;;;24.30;45.80;;;;;;456669;260;2164;-72
2021/10/06 01:20:43;;;;;;;;;;;24.20;45.90;;;;;;456647;260;1281;-72
2021/10/06 01:22:44;;;;;;;;;;;24.10;45.90;;;;;;456677;260;1265;-72
2021/10/06 01:24:46;;;;;;;;;;;24.30;45.70;;;;;;456646;261;1033;-72
2021/10/06 01:26:47;;;;;;;;;;;24.30;45.70;;;;;;456729;260;1175;-72
2021/10/06 01:28:48;;;;;;;;;;;24.20;45.70;;;;;;456660;260;983;-72
2021/10/06 01:30:50;;;;;;;;;;;24.10;45.90;;;;;;456607;260;1051;-72
2021/10/06 01:32:51;;;;;;;;;;;24.10;46.00;;;;;;456591;260;1136;-72
2021/10/06 01:34:52;;;;;;;;;;;23.90;46.20;;;;;;456670;260;964;-72
2021/10/06 01:36:54;;;;;;;;;;;24.00;46.20;;;;;;456624;260;1228;-72
2021/10/06 01:38:55;;;;;;;;;;;24.10;45.90;;;;;;456697;260;2206;-72
2021/10/06 01:40:56;;;;;;;;;;;23.80;46.50;;;;;;456852;259;981;-72
2021/10/06 01:42:58;;;;;;;;;;;23.90;46.30;;;;;;456659;261;1104;-72
2021/10/06 01:44:59;;;;;;;;;;;24.10;46.00;;;;;;456704;261;996;-72
2021/10/06 01:47:00;;;;;;;;;;;24.00;45.90;;;;;;456661;260;1231;-73
2021/10/06 01:49:02;;;;;;;;;;;24.00;46.30;;;;;;456668;260;1205;-72
2021/10/06 01:51:03;;;;;;;;;;;24.20;45.70;;;;;;456529;260;1297;-72
2021/10/06 01:53:04;;;;;;;;;;;24.10;45.60;;;;;;456625;260;1189;-72
2021/10/06 01:55:06;;;;;;;;;;;24.30;45.40;;;;;;456653;260;965;-72
2021/10/06 01:57:07;;;;;;;;;;;24.30;45.30;;;;;;456563;261;2213;-72
2021/10/06 01:59:08;;;;;;;;;;;24.40;45.10;;;;;;456645;260;1032;-72
2021/10/06 02:01:10;;;;;;;;;;;24.30;45.20;;;;;;456582;260;1162;-72
2021/10/06 02:03:11;;;;;;;;;;;24.30;45.10;;;;;;456725;260;1175;-72
2021/10/06 02:05:12;;;;;;;;;;;24.30;45.20;;;;;;456775;260;1067;-72
2021/10/06 02:07:14;;;;;;;;;;;24.10;45.50;;;;;;456614;259;1407;-72
2021/10/06 02:09:15;;;;;;;;;;;24.20;45.20;;;;;;456702;260;1010;-72
2021/10/06 02:11:17;;;;;;;;;;;24.10;45.30;;;;;;456560;261;1135;-72
2021/10/06 02:13:18;;;;;;;;;;;24.00;45.50;;;;;;456739;260;1059;-72
2021/10/06 02:15:19;;;;;;;;;;;23.60;46.40;;;;;;456761;260;1064;-72
2021/10/06 02:17:20;;;;;;;;;;;23.80;46.20;;;;;;456706;260;2132;-72
2021/10/06 02:19:22;;;;;;;;;;;23.70;46.30;;;;;;456762;260;1175;-73
2021/10/06 02:21:23;;;;;;;;;;;23.80;46.20;;;;;;456556;261;1191;-72
2021/10/06 02:23:24;;;;;;;;;;;23.60;46.40;;;;;;456729;260;1415;-72
2021/10/06 02:25:26;;;;;;;;;;;23.30;46.80;;;;;;456502;261;1175;-72
2021/10/06 02:27:27;;;;;;;;;;;23.60;46.90;;;;;;456707;260;1141;-72
2021/10/06 02:29:29;;;;;;;;;;;23.70;46.20;;;;;;456743;261;1106;-72
2021/10/06 02:31:30;;;;;;;;;;;23.60;46.30;;;;;;456617;260;1190;-72
2021/10/06 02:33:31;;;;;;;;;;;23.60;46.30;;;;;;456691;260;1158;-72
2021/10/06 02:35:33;;;;;;;;;;;23.50;46.60;;;;;;456732;260;1137;-72
2021/10/06 02:37:34;;;;;;;;;;;23.50;46.60;;;;;;456645;259;2237;-73
2021/10/06 02:39:35;;;;;;;;;;;23.70;46.40;;;;;;456756;260;1071;-72
2021/10/06 02:41:37;;;;;;;;;;;23.40;46.60;;;;;;456659;260;1115;-72
2021/10/06 02:43:38;;;;;;;;;;;23.40;46.50;;;;;;456740;260;1171;-72
2021/10/06 02:45:39;;;;;;;;;;;23.20;47.10;;;;;;456736;260;1233;-72
2021/10/06 02:47:41;;;;;;;;;;;23.30;46.70;;;;;;456656;260;1132;-72
2021/10/06 02:49:42;;;;;;;;;;;23.60;46.40;;;;;;456683;260;1447;-72
2021/10/06 02:51:43;;;;;;;;;;;23.40;46.70;;;;;;456553;261;1118;-72
2021/10/06 02:53:45;;;;;;;;;;;23.40;46.50;;;;;;456703;260;1056;-72
2021/10/06 02:55:46;;;;;;;;;;;23.20;46.80;;;;;;456676;260;1149;-72
2021/10/06 02:57:47;;;;;;;;;;;23.40;46.50;;;;;;456684;260;2227;-72
2021/10/06 02:59:49;;;;;;;;;;;23.30;46.80;;;;;;456700;260;1270;-72
2021/10/06 03:01:50;;;;;;;;;;;23.50;46.60;;;;;;456448;259;1195;-72
2021/10/06 03:03:51;;;;;;;;;;;23.40;46.60;;;;;;456656;260;1105;-72
2021/10/06 03:05:53;;;;;;;;;;;23.50;46.00;;;;;;456697;258;1207;-72
2021/10/06 03:07:54;;;;;;;;;;;23.10;46.80;;;;;;456701;260;1151;-72
2021/10/06 03:09:55;;;;;;;;;;;23.30;46.80;;;;;;456700;260;1089;-72
2021/10/06 03:11:57;;;;;;;;;;;23.30;46.30;;;;;;456514;260;1237;-72
2021/10/06 03:13:58;;;;;;;;;;;23.40;46.30;;;;;;456667;259;1257;-72
2021/10/06 03:15:59;;;;;;;;;;;23.40;46.20;;;;;;456614;260;1185;-72
2021/10/06 03:18:01;;;;;;;;;;;23.40;46.20;;;;;;456621;260;2207;-72
2021/10/06 03:20:02;;;;;;;;;;;23.50;45.80;;;;;;456665;260;1156;-72
2021/10/06 03:22:03;;;;;;;;;;;23.60;45.70;;;;;;456632;260;1222;-72
2021/10/06 03:24:05;;;;;;;;;;;23.50;45.90;;;;;;456700;260;951;-72
2021/10/06 03:26:06;;;;;;;;;;;23.30;46.00;;;;;;456649;260;1256;-72
2021/10/06 03:28:07;;;;;;;;;;;23.30;46.10;;;;;;456716;260;1107;-72
2021/10/06 03:30:09;;;;;;;;;;;23.30;46.20;;;;;;456658;260;1018;-72
2021/10/06 03:32:11;;;;;;;;;;;23.40;45.90;;;;;;456555;261;1385;-72
2021/10/06 03:34:13;;;;;;;;;;;23.70;45.30;;;;;;456680;260;1015;-72
2021/10/06 03:36:14;;;;;;;;;;;23.40;45.40;;;;;;456549;260;1351;-72
2021/10/06 03:38:15;;;;;;;;;;;23.50;45.70;;;;;;456553;260;2205;-73
2021/10/06 03:40:17;;;;;;;;;;;23.40;45.50;;;;;;456489;261;1067;-72
2021/10/06 03:42:18;;;;;;;;;;;23.50;45.80;;;;;;456622;260;1215;-72
2021/10/06 03:44:19;;;;;;;;;;;23.40;45.60;;;;;;456706;260;1171;-72
2021/10/06 03:46:21;;;;;;;;;;;23.20;45.80;;;;;;456779;258;1318;-72
2021/10/06 03:48:22;;;;;;;;;;;23.40;45.70;;;;;;456724;260;990;-72
2021/10/06 03:50:23;;;;;;;;;;;23.10;45.90;;;;;;456649;260;1175;-72
2021/10/06 03:52:25;;;;;;;;;;;23.10;46.20;;;;;;456630;260;1225;-72
2021/10/06 03:54:26;;;;;;;;;;;23.60;45.60;;;;;;456745;260;1074;-72
2021/10/06 03:56:27;;;;;;;;;;;23.40;45.40;;;;;;456636;260;1164;-72
2021/10/06 03:58:29;;;;;;;;;;;23.20;45.80;;;;;;456686;260;2195;-72
2021/10/06 04:00:30;;;;;;;;;;;23.50;45.60;;;;;;456619;260;1166;-72
2021/10/06 04:02:31;;;;;;;;;;;23.20;45.60;;;;;;456741;260;1270;-72
2021/10/06 04:04:33;;;;;;;;;;;23.50;45.40;;;;;;456789;260;986;-72
2021/10/06 04:06:34;;;;;;;;;;;23.30;45.50;;;;;;456757;260;1191;-72
2021/10/06 04:08:35;;;;;;;;;;;23.30;45.70;;;;;;456648;260;992;-72
2021/10/06 04:10:37;;;;;;;;;;;23.30;45.50;;;;;;456572;260;1041;-72
2021/10/06 04:12:38;;;;;;;;;;;23.50;45.30;;;;;;456622;261;966;-72
2021/10/06 04:14:39;;;;;;;;;;;23.50;45.20;;;;;;456656;260;1010;-72
2021/10/06 04:16:41;;;;;;;;;;;23.50;45.10;;;;;;456596;260;1174;-72
2021/10/06 04:18:42;;;;;;;;;;;23.40;45.20;;;;;;456626;260;2203;-72
2021/10/06 04:20:43;;;;;;;;;;;23.40;45.30;;;;;;456422;260;1170;-72
2021/10/06 04:22:45;;;;;;;;;;;23.30;45.30;;;;;;456553;260;1220;-73
2021/10/06 04:24:46;;;;;;;;;;;23.30;45.30;;;;;;456611;260;1010;-72
2021/10/06 04:26:47;;;;;;;;;;;23.30;45.20;;;;;;456563;260;1169;-72
2021/10/06 04:28:48;;;;;;;;;;;23.30;45.00;;;;;;456669;260;1130;-72
2021/10/06 04:30:50;;;;;;;;;;;23.20;45.70;;;;;;456493;260;1282;-72
2021/10/06 04:32:51;;;;;;;;;;;23.20;45.30;;;;;;456613;260;1175;-72
2021/10/06 04:34:52;;;;;;;;;;;23.20;45.80;;;;;;456577;260;967;-72
2021/10/06 04:36:54;;;;;;;;;;;23.40;45.10;;;;;;456532;260;1300;-72
2021/10/06 04:38:55;;;;;;;;;;;23.60;44.80;;;;;;456568;260;2143;-72
2021/10/06 04:40:56;;;;;;;;;;;23.50;44.60;;;;;;456417;258;1349;-72
2021/10/06 04:42:58;;;;;;;;;;;23.30;45.20;;;;;;456401;261;1231;-72
2021/10/06 04:44:59;;;;;;;;;;;23.00;45.60;;;;;;456435;260;1143;-73
2021/10/06 04:47:00;;;;;;;;;;;23.40;45.20;;;;;;456449;260;1342;-72
2021/10/06 04:49:02;;;;;;;;;;;23.50;44.70;;;;;;456451;260;1102;-72
2021/10/06 04:51:03;;;;;;;;;;;23.50;44.60;;;;;;456344;260;1639;-72
2021/10/06 04:53:04;;;;;;;;;;;23.60;44.40;;;;;;456487;260;1250;-72
2021/10/06 04:55:06;;;;;;;;;;;23.70;44.30;;;;;;456517;260;1066;-72
2021/10/06 04:57:07;;;;;;;;;;;23.60;44.50;;;;;;456439;260;1102;-72
2021/10/06 04:59:08;;;;;;;;;;;23.60;44.30;;;;;;456427;260;2199;-72
2021/10/06 05:01:10;;;;;;;;;;;23.40;44.60;;;;;;456338;260;1064;-72
2021/10/06 05:03:11;;;;;;;;;;;23.40;44.70;;;;;;456314;260;1117;-72
2021/10/06 05:05:12;;;;;;;;;;;23.20;44.90;;;;;;456420;260;983;-72
2021/10/06 05:07:14;;;;;;;;;;;23.50;44.90;;;;;;456415;260;1206;-73
2021/10/06 05:09:15;;;;;;;;;;;23.30;44.50;;;;;;456485;260;1053;-72
2021/10/06 05:11:16;;;;;;;;;;;23.40;44.60;;;;;;456322;260;1085;-72
2021/10/06 05:13:18;;;;;;;;;;;23.40;44.90;;;;;;456428;260;1142;-73
2021/10/06 05:15:19;;;;;;;;;;;23.30;44.60;;;;;;456352;261;1092;-72
2021/10/06 05:17:20;;;;;;;;;;;23.40;44.80;;;;;;456272;258;1101;-72
2021/10/06 05:19:22;;;;;;;;;;;23.40;44.50;;;;;;456361;261;2207;-72
2021/10/06 05:21:23;;;;;;;;;;;23.00;45.30;;;;;;456309;260;1119;-72
2021/10/06 05:23:24;;;;;;;;;;;23.20;45.10;;;;;;456365;260;1256;-72
2021/10/06 05:25:26;;;;;;;;;;;23.00;45.30;;;;;;456424;260;1059;-72
2021/10/06 05:27:27;;;;;;;;;;;23.50;44.50;;;;;;456258;260;1317;-71
2021/10/06 05:29:28;;;;;;;;;;;23.10;45.00;;;;;;456368;260;1380;-72
2021/10/06 05:31:29;;;;;;;;;;;23.20;44.90;;;;;;456299;260;1051;-72
2021/10/06 05:33:31;;;;;;;;;;;23.40;44.50;;;;;;456449;260;1059;-72
2021/10/06 05:35:32;;;;;;;;;;;23.30;44.70;;;;;;456303;260;985;-71
2021/10/06 05:37:33;;;;;;;;;;;23.30;44.60;;;;;;456227;261;1284;-72
2021/10/06 05:39:35;;;;;;;;;;;23.30;44.60;;;;;;456213;260;2211;-72
2021/10/06 05:41:36;;;;;;;;;;;23.30;44.60;;;;;;456142;260;1225;-72
2021/10/06 05:43:37;;;;;;;;;;;23.20;44.70;;;;;;456216;260;1310;-72
2021/10/06 05:45:39;;;;;;;;;;;23.40;44.60;;;;;;456231;260;1015;-72
2021/10/06 05:47:40;;;;;;;;;;;23.30;44.60;;;;;;456243;259;1228;-72
2021/10/06 05:49:41;;;;;;;;;;;23.30;44.70;;;;;;456257;261;1142;-72
2021/10/06 05:51:43;;;;;;;;;;;23.20;44.80;;;;;;456097;260;1205;-72
2021/10/06 05:53:44;;;;;;;;;;;23.40;44.40;;;;;;456195;260;1060;-72
2021/10/06 05:55:45;;;;;;;;;;;23.30;44.50;;;;;;456087;260;1095;-72
2021/10/06 05:57:47;;;;;;;;;;;23.70;44.10;;;;;;456179;260;1106;-72
2021/10/06 05:59:50;;;;;;;;;;;24.10;43.20;;;;;;456097;260;2218;-72
2021/10/06 06:01:49;;;;;;;;;;;24.20;42.70;;;;;;456124;260;1438;-72
2021/10/06 06:03:50;;;;;;;;;;;24.40;42.50;;;;;;456161;260;1073;-72
2021/10/06 06:05:52;;;;;;;;;;;24.50;42.30;;;;;;456197;260;1033;-72
2021/10/06 06:07:53;;;;;;;;;;;24.50;42.20;;;;;;456050;260;1230;-72
2021/10/06 06:09:54;;;;;;;;;;;24.50;42.20;;;;;;455973;260;1122;-72
2021/10/06 06:11:56;;;;;;;;;;;24.60;41.80;;;;;;455999;260;1216;-72
2021/10/06 06:13:57;;;;;;;;;;;24.60;42.10;;;;;;456028;260;1162;-72
2021/10/06 06:15:59;;;;;;;;;;;24.70;41.80;;;;;;456098;259;1141;-72
2021/10/06 06:18:00;;;;;;;;;;;24.70;41.80;;;;;;456095;260;1409;-72
2021/10/06 06:20:01;;;;;;;;;;;24.70;41.70;;;;;;456022;261;2207;-72
2021/10/06 06:22:02;;;;;;;;;;;24.70;41.70;;;;;;456089;260;1279;-72
2021/10/06 06:24:04;;;;;;;;;;;24.80;41.60;;;;;;456074;260;1076;-72
2021/10/06 06:26:05;;;;;;;;;;;24.80;41.60;;;;;;455936;259;1170;-72
2021/10/06 06:28:06;;;;;;;;;;;24.80;41.50;;;;;;456124;260;1353;-72
2021/10/06 06:30:08;;;;;;;;;;;24.70;41.60;;;;;;456047;259;1063;-72
2021/10/06 06:32:09;;;;;;;;;;;24.70;41.60;;;;;;456015;261;1211;-72
2021/10/06 06:34:10;;;;;;;;;;;24.70;41.60;;;;;;455975;260;1027;-72
2021/10/06 06:36:12;;;;;;;;;;;24.70;41.50;;;;;;455974;259;1169;-72
2021/10/06 06:38:13;;;;;;;;;;;24.80;41.50;;;;;;455943;261;1171;-72
2021/10/06 06:40:14;;;;;;;;;;;24.70;41.50;;;;;;456082;260;2136;-73
2021/10/06 06:42:16;;;;;;;;;;;24.80;41.40;;;;;;455898;260;1174;-72
2021/10/06 06:44:17;;;;;;;;;;;24.80;41.40;;;;;;455570;261;1006;-72
2021/10/06 06:46:19;;;;;;;;;;;24.90;41.40;;;;;;455857;260;1173;-72
2021/10/06 06:48:20;;;;;;;;;;;24.80;41.20;;;;;;455885;260;1099;-72
2021/10/06 06:50:22;;;;;;;;;;;24.80;41.20;;;;;;455744;261;1091;-72
2021/10/06 06:52:23;;;;;;;;;;;24.80;41.20;;;;;;455764;261;1189;-72
2021/10/06 06:54:24;;;;;;;;;;;24.80;41.30;;;;;;455905;260;1026;-72
2021/10/06 06:56:26;;;;;;;;;;;24.80;41.30;;;;;;455836;261;1111;-72
2021/10/06 06:58:27;;;;;;;;;;;24.90;41.10;;;;;;455908;260;1097;-72
2021/10/06 07:00:28;;;;;;;;;;;24.90;41.10;;;;;;455734;255;2183;-72
2021/10/06 07:02:30;;;;;;;;;;;24.90;41.10;;;;;;455897;260;1181;-72
2021/10/06 07:04:31;;;;;;;;;;;24.80;41.20;;;;;;455832;260;1101;-72
2021/10/06 07:06:35;;;;;;;;;;;24.80;41.20;;;;;;455721;259;1190;-72
2021/10/06 07:08:36;;;;;;;;;;;24.80;41.20;;;;;;455667;260;1133;-72
2021/10/06 07:10:38;;;;;;;;;;;24.80;41.20;;;;;;455856;260;1247;-72
2021/10/06 07:12:41;;;;;;;;;;;24.90;41.00;;;;;;455978;260;1154;-72
2021/10/06 07:14:42;;;;;;;;;;;24.90;40.90;;;;;;455857;259;1005;-72
2021/10/06 07:16:43;;;;;;;;;;;24.90;41.00;;;;;;455847;261;1261;-72
2021/10/06 07:18:45;;;;;;;;;;;24.90;40.80;;;;;;455934;260;1154;-72
2021/10/06 07:20:46;;;;;;;;;;;24.90;40.90;;;;;;455887;260;2183;-72
2021/10/06 07:22:48;;;;;;;;;;;24.90;40.90;;;;;;455742;260;1199;-72
2021/10/06 07:24:49;;;;;;;;;;;24.90;40.80;;;;;;455763;260;1099;-72
2021/10/06 07:26:50;;;;;;;;;;;24.90;40.90;;;;;;455800;261;1126;-72
2021/10/06 07:28:52;;;;;;;;;;;24.90;40.80;;;;;;455750;259;1079;-72
2021/10/06 07:30:53;;;;;;;;;;;24.80;40.90;;;;;;455790;260;1508;-72
2021/10/06 07:32:54;;;;;;;;;;;24.90;40.70;;;;;;455841;260;1245;-72
2021/10/06 07:34:56;;;;;;;;;;;24.90;40.80;;;;;;455730;260;1054;-72
2021/10/06 07:36:57;;;;;;;;;;;24.90;40.70;;;;;;455770;261;1254;-72
2021/10/06 07:38:59;;;;;;;;;;;24.90;40.70;;;;;;455800;261;2206;-72
2021/10/06 07:41:00;;;;;;;;;;;24.90;40.60;;;;;;455711;260;1209;-72
2021/10/06 07:43:01;;;;;;;;;;;24.90;40.70;;;;;;455745;260;1164;-72
2021/10/06 07:45:03;;;;;;;;;;;24.90;40.80;;;;;;455784;260;1115;-72
2021/10/06 07:47:04;;;;;;;;;;;24.80;40.90;;;;;;455830;260;1119;-72
2021/10/06 07:49:05;;;;;;;;;;;24.80;40.80;;;;;;455860;260;1087;-72
2021/10/06 07:51:07;;;;;;;;;;;24.80;40.80;;;;;;455468;261;1220;-72
2021/10/06 07:53:08;;;;;;;;;;;24.90;40.70;;;;;;456567;260;1202;-72
2021/10/06 07:55:09;;;;;;;;;;;24.90;40.60;;;;;;456183;260;974;-72
2021/10/06 07:57:11;;;;;;;;;;;24.80;40.70;;;;;;455900;260;1239;-72
2021/10/06 07:59:12;;;;;;;;;;;24.80;40.60;;;;;;455798;260;2207;-72
2021/10/06 08:01:13;;;;;;;;;;;24.90;40.70;;;;;;455726;260;1172;-72
2021/10/06 08:03:15;;;;;;;;;;;24.90;40.50;;;;;;455829;261;1086;-72
2021/10/06 08:05:16;;;;;;;;;;;25.00;40.40;;;;;;455869;259;1109;-72
2021/10/06 08:07:17;;;;;;;;;;;25.00;40.30;;;;;;456091;260;1142;-72
2021/10/06 08:09:19;;;;;;;;;;;24.90;40.40;;;;;;455933;260;1172;-72
2021/10/06 08:11:20;;;;;;;;;;;24.90;40.40;;;;;;455812;258;1283;-72
2021/10/06 08:13:22;;;;;;;;;;;24.80;40.50;;;;;;455864;261;1088;-72
2021/10/06 08:15:23;;;;;;;;;;;24.90;40.50;;;;;;455711;260;1231;-72
2021/10/06 08:17:24;;;;;;;;;;;24.80;40.40;;;;;;455367;260;1301;-72
2021/10/06 08:19:25;;;;;;;;;;;24.90;40.50;;;;;;455460;260;2215;-72
2021/10/06 08:21:27;;;;;;;;;;;24.90;40.50;;;;;;455504;260;1313;-72
2021/10/06 08:23:30;;;;;;;;;;;24.90;40.50;;;;;;455804;260;1092;-72
2021/10/06 08:25:29;;;;;;;;;;;24.90;40.40;;;;;;455698;260;1406;-72
2021/10/06 08:27:31;;;;;;;;;;;24.90;40.40;;;;;;455753;260;1156;-72
2021/10/06 08:29:32;;;;;;;;;;;24.90;40.50;;;;;;455716;261;1029;-72
2021/10/06 08:31:33;;;;;;;;;;;24.80;40.50;;;;;;455782;259;1227;-72
2021/10/06 08:33:35;;;;;;;;;;;24.90;40.40;;;;;;455705;260;1085;-72
2021/10/06 08:35:36;;;;;;;;;;;24.90;40.50;;;;;;455743;260;1359;-72
2021/10/06 08:37:37;;;;;;;;;;;24.80;40.50;;;;;;455771;260;1312;-72
2021/10/06 08:39:39;;;;;;;;;;;24.90;40.40;;;;;;455894;260;2214;-72
2021/10/06 08:41:40;;;;;;;;;;;24.80;40.50;;;;;;455741;260;1290;-72
2021/10/06 08:43:41;;;;;;;;;;;24.90;40.50;;;;;;456082;260;1138;-72
2021/10/06 08:45:43;;;;;;;;;;;24.80;40.50;;;;;;455787;260;1132;-72
2021/10/06 08:47:44;;;;;;;;;;;24.90;40.40;;;;;;455839;260;1186;-72
2021/10/06 08:49:45;;;;;;;;;;;24.80;40.50;;;;;;455817;261;1267;-72
2021/10/06 08:51:47;;;;;;;;;;;24.90;40.50;;;;;;455752;260;1368;-72
2021/10/06 08:53:48;;;;;;;;;;;24.70;40.60;;;;;;455789;260;1111;-72
2021/10/06 08:55:49;;;;;;;;;;;24.80;40.50;;;;;;455786;260;1225;-72
2021/10/06 08:57:51;;;;;;;;;;;24.80;40.50;;;;;;455549;260;1421;-72
2021/10/06 08:59:52;;;;;;;;;;;24.80;40.40;;;;;;455545;261;2202;-72
2021/10/06 09:01:53;;;;;;;;;;;24.80;40.30;;;;;;455769;260;1283;-72
2021/10/06 09:03:55;;;;;;;;;;;24.80;40.30;;;;;;455751;260;1112;-72
2021/10/06 09:05:57;;;;;;;;;;;24.80;40.30;;;;;;455731;261;1145;-72
2021/10/06 09:07:58;;;;;;;;;;;24.80;40.50;;;;;;455866;260;1152;-72
2021/10/06 09:09:59;;;;;;;;;;;24.80;40.30;;;;;;455878;260;1196;-72
2021/10/06 09:12:02;;;;;;;;;;;24.80;40.20;;;;;;455655;259;1196;-72
2021/10/06 09:14:05;;;;;;;;;;;24.80;40.20;;;;;;455726;260;1318;-72
2021/10/06 09:16:03;;;;;;;;;;;24.70;40.30;;;;;;455760;260;1437;-72
2021/10/06 09:18:05;;;;;;;;;;;24.90;40.20;;;;;;455723;260;1312;-72
2021/10/06 09:20:06;;;;;;;;;;;24.80;40.20;;;;;;455745;260;2174;-72
2021/10/06 09:22:07;;;;;;;;;;;24.90;40.20;;;;;;455768;259;1144;-72
2021/10/06 09:24:11;;;;;;;;;;;24.80;40.10;;;;;;455885;260;1025;-72
2021/10/06 09:26:10;;;;;;;;;;;24.70;40.30;;;;;;455827;261;1513;-72
2021/10/06 09:28:11;;;;;;;;;;;24.90;40.10;;;;;;455822;260;1088;-72
2021/10/06 09:30:13;;;;;;;;;;;24.80;40.10;;;;;;455803;260;1012;-72
2021/10/06 09:32:14;;;;;;;;;;;24.90;39.90;;;;;;454888;261;1073;-72
2021/10/06 09:34:15;;;;;;;;;;;24.80;39.90;;;;;;455686;260;1143;-72
2021/10/06 09:36:17;;;;;;;;;;;24.90;39.90;;;;;;455602;260;1133;-72
2021/10/06 09:38:18;;;;;;;;;;;24.90;39.90;;;;;;455766;260;1094;-72
2021/10/06 09:40:19;;;;;;;;;;;24.90;39.70;;;;;;455569;260;2219;-72
2021/10/06 09:42:21;;;;;;;;;;;24.90;39.80;;;;;;455756;260;1090;-72
2021/10/06 09:44:22;;;;;;;;;;;24.90;39.90;;;;;;455852;260;1225;-72
2021/10/06 09:46:23;;;;;;;;;;;24.80;39.90;;;;;;455766;260;1093;-72
2021/10/06 09:48:25;;;;;;;;;;;24.90;39.90;;;;;;455758;260;1091;-72
2021/10/06 09:50:26;;;;;;;;;;;24.90;39.70;;;;;;455807;260;1128;-72
2021/10/06 09:52:27;;;;;;;;;;;25.00;39.70;;;;;;455578;260;1103;-72
2021/10/06 09:54:29;;;;;;;;;;;24.90;39.60;;;;;;455624;260;1148;-72
2021/10/06 09:56:30;;;;;;;;;;;24.90;39.60;;;;;;455773;260;1223;-72
2021/10/06 09:58:32;;;;;;;;;;;24.90;39.60;;;;;;455869;260;1097;-72
2021/10/06 10:00:33;;;;;;;;;;;24.90;39.60;;;;;;455730;261;2401;-72
2021/10/06 10:02:34;;;;;;;;;;;24.90;39.60;;;;;;455596;260;1051;-72
2021/10/06 10:04:36;;;;;;;;;;;24.90;39.50;;;;;;455534;260;1053;-72
2021/10/06 10:06:37;;;;;;;;;;;24.90;39.50;;;;;;454963;261;1153;-72
2021/10/06 10:08:38;;;;;;;;;;;24.90;39.50;;;;;;456060;260;1000;-72
2021/10/06 10:10:40;;;;;;;;;;;24.90;39.40;;;;;;455771;260;1208;-72
2021/10/06 10:12:41;;;;;;;;;;;24.90;39.50;;;;;;455744;260;1078;-72
2021/10/06 10:14:42;;;;;;;;;;;24.90;39.40;;;;;;455727;259;1041;-72
2021/10/06 10:16:43;;;;;;;;;;;24.90;39.50;;;;;;455894;260;1394;-72
2021/10/06 10:18:45;;;;;;;;;;;24.90;39.40;;;;;;455351;261;1127;-72
2021/10/06 10:20:47;;;;;;;;;;;24.90;39.50;;;;;;455183;260;2201;-72
2021/10/06 10:22:48;;;;;;;;;;;24.90;39.50;;;;;;455491;261;1671;-72
2021/10/06 10:24:49;;;;;;;;;;;24.90;39.50;;;;;;455929;260;1819;-72
2021/10/06 10:26:50;;;;;;;;;;;25.00;39.40;;;;;;456073;260;1228;-72
2021/10/06 10:28:52;;;;;;;;;;;24.80;39.60;;;;;;456020;260;906;-72
2021/10/06 10:30:53;;;;;;;;;;;24.90;39.60;;;;;;455556;260;1367;-72
2021/10/06 10:32:54;;;;;;;;;;;24.90;39.80;;;;;;455839;261;1091;-72
2021/10/06 10:34:55;;;;;;;;;;;24.90;39.70;;;;;;455847;260;1129;-72
2021/10/06 10:36:57;;;;;;;;;;;24.90;39.90;;;;;;455667;260;1189;-72
2021/10/06 10:38:58;;;;;;;;;;;24.90;40.10;;;;;;455680;260;1104;-72
2021/10/06 10:41:01;;;;;;;;;;;24.90;40.10;;;;;;455622;261;2215;-72
2021/10/06 10:43:01;;;;;;;;;;;24.90;40.20;;;;;;455784;260;1366;-72
2021/10/06 10:45:02;;;;;;;;;;;25.00;40.10;;;;;;455889;260;1287;-72
2021/10/06 10:47:04;;;;;;;;;;;25.00;40.10;;;;;;455881;260;1110;-74
2021/10/06 10:49:05;;;;;;;;;;;25.10;39.90;;;;;;455762;260;1037;-72
2021/10/06 10:51:06;;;;;;;;;;;24.90;40.00;;;;;;455769;260;1295;-72
2021/10/06 10:53:08;;;;;;;;;;;25.00;40.10;;;;;;455387;260;1180;-72
2021/10/06 10:55:09;;;;;;;;;;;25.00;40.00;;;;;;455412;260;1221;-72
2021/10/06 10:57:10;;;;;;;;;;;25.00;40.00;;;;;;455757;261;1186;-72
2021/10/06 10:59:12;;;;;;;;;;;25.00;39.90;;;;;;455702;260;1141;-73
2021/10/06 11:01:13;;;;;;;;;;;25.10;40.00;;;;;;455689;260;2202;-72
2021/10/06 11:03:14;;;;;;;;;;;25.00;40.00;;;;;;455690;261;1092;-72
2021/10/06 11:05:16;;;;;;;;;;;25.00;40.00;;;;;;455697;260;1108;-72
2021/10/06 11:07:18;;;;;;;;;;;25.00;39.90;;;;;;455746;260;1254;-72
2021/10/06 11:09:19;;;;;;;;;;;25.10;39.90;;;;;;455589;260;989;-72
2021/10/06 11:11:20;;;;;;;;;;;25.00;40.00;;;;;;455515;260;1119;-72
2021/10/06 11:13:22;;;;;;;;;;;25.00;39.80;;;;;;455746;260;1157;-72
2021/10/06 11:15:23;;;;;;;;;;;25.00;39.70;;;;;;455710;260;1416;-73
2021/10/06 11:17:24;;;;;;;;;;;25.00;39.60;;;;;;455623;260;1172;-72
2021/10/06 11:19:26;;;;;;;;;;;25.00;39.60;;;;;;455798;260;1162;-72
2021/10/06 11:21:27;;;;;;;;;;;24.90;39.80;;;;;;455765;260;2199;-72
2021/10/06 11:23:28;;;;;;;;;;;24.90;39.60;;;;;;456022;260;1047;-72
2021/10/06 11:25:30;;;;;;;;;;;24.90;39.70;;;;;;455656;260;1190;-72
2021/10/06 11:27:31;;;;;;;;;;;24.90;39.70;;;;;;455829;260;1089;-72
2021/10/06 11:29:32;;;;;;;;;;;25.00;39.60;;;;;;456530;260;910;-72
2021/10/06 11:31:34;;;;;;;;;;;24.90;39.70;;;;;;456157;260;1195;-72
2021/10/06 11:33:35;;;;;;;;;;;24.90;39.80;;;;;;456522;260;1289;-72
2021/10/06 11:35:36;;;;;;;;;;;24.80;39.80;;;;;;456151;260;1441;-72
2021/10/06 11:37:37;;;;;;;;;;;24.90;39.80;;;;;;455794;260;1153;-72
2021/10/06 11:39:39;;;;;;;;;;;24.80;39.70;;;;;;455704;260;1108;-72
2021/10/06 11:41:40;;;;;;;;;;;24.90;39.70;;;;;;455583;261;2135;-72
2021/10/06 11:43:41;;;;;;;;;;;24.90;39.40;;;;;;456239;260;862;-72
2021/10/06 11:45:43;;;;;;;;;;;24.90;39.30;;;;;;455834;260;1546;-72
2021/10/06 11:47:44;;;;;;;;;;;24.90;39.20;;;;;;456245;260;1459;-72
2021/10/06 11:49:45;;;;;;;;;;;24.90;39.00;;;;;;455810;260;993;-72
2021/10/06 11:51:47;;;;;;;;;;;25.00;38.90;;;;;;455638;257;1276;-72
2021/10/06 11:53:48;;;;;;;;;;;24.90;38.90;;;;;;455751;260;836;-73
2021/10/06 11:55:49;;;;;;;;;;;24.80;38.80;;;;;;456251;260;1475;-73
2021/10/06 11:57:51;;;;;;;;;;;24.80;38.80;;;;;;455764;260;1071;-73